createdAt,value
2022-12-09T00:00:32.036Z,0.00
2022-12-09T00:01:31.951Z,0.00
2022-12-09T00:02:32.262Z,0.00
2022-12-09T00:03:32.342Z,0.00
2022-12-09T00:04:32.265Z,0.00
2022-12-09T00:05:32.310Z,0.00
2022-12-09T00:06:32.308Z,0.00
2022-12-09T00:07:32.344Z,0.00
2022-12-09T00:08:32.481Z,0.00
2022-12-09T00:09:32.505Z,0.00
2022-12-09T00:10:32.594Z,0.00
2022-12-09T00:11:32.900Z,0.00
2022-12-09T00:12:32.776Z,0.00
2022-12-09T00:13:33.083Z,0.00
2022-12-09T00:14:32.883Z,0.00
2022-12-09T00:15:33.189Z,0.00
2022-12-09T00:16:33.113Z,0.00
2022-12-09T00:17:33.240Z,0.00
2022-12-09T00:18:33.375Z,0.00
2022-12-09T00:19:33.396Z,0.00
2022-12-09T00:20:33.414Z,0.00
2022-12-09T00:21:33.677Z,0.00
2022-12-09T00:22:33.513Z,0.00
2022-12-09T00:23:33.606Z,0.00
2022-12-09T00:24:33.782Z,0.00
2022-12-09T00:25:33.831Z,0.00
2022-12-09T00:26:34.048Z,0.00
2022-12-09T00:27:33.961Z,0.00
2022-12-09T00:28:33.990Z,0.00
2022-12-09T00:29:34.226Z,0.00
2022-12-09T00:30:34.163Z,0.00
2022-12-09T00:31:34.418Z,0.00
2022-12-09T00:32:34.675Z,0.00
2022-12-09T00:33:34.615Z,0.00
2022-12-09T00:34:34.502Z,0.00
2022-12-09T00:35:34.825Z,0.00
2022-12-09T00:36:34.709Z,0.00
2022-12-09T00:37:34.977Z,0.00
2022-12-09T00:38:35.144Z,0.00
2022-12-09T00:39:35.083Z,0.00
2022-12-09T00:40:35.124Z,0.00
2022-12-09T00:41:35.245Z,0.00
2022-12-09T00:42:35.376Z,0.00
2022-12-09T00:43:35.302Z,0.00
2022-12-09T00:44:35.277Z,0.00
2022-12-09T00:45:35.370Z,0.00
2022-12-09T00:46:35.795Z,0.00
2022-12-09T00:47:35.699Z,0.00
2022-12-09T00:48:35.809Z,0.00
2022-12-09T00:49:35.735Z,0.00
2022-12-09T00:50:35.953Z,0.00
2022-12-09T00:51:35.823Z,0.00
2022-12-09T00:52:35.937Z,0.00
2022-12-09T00:53:36.035Z,0.00
2022-12-09T00:54:36.197Z,0.00
2022-12-09T00:55:36.217Z,0.00
2022-12-09T00:56:36.223Z,0.00
2022-12-09T00:57:36.470Z,0.00
2022-12-09T00:58:36.366Z,0.00
2022-12-09T00:59:36.522Z,0.00
2022-12-09T01:00:36.802Z,0.00
2022-12-09T01:01:36.677Z,0.00
2022-12-09T01:02:36.859Z,0.00
2022-12-09T01:03:36.967Z,0.00
2022-12-09T01:04:36.914Z,0.00
2022-12-09T01:05:36.947Z,0.00
2022-12-09T01:06:37.156Z,0.00
2022-12-09T01:07:37.079Z,0.00
2022-12-09T01:08:39.124Z,0.00
2022-12-09T01:09:37.338Z,0.00
2022-12-09T01:10:37.373Z,0.00
2022-12-09T01:11:37.372Z,0.00
2022-12-09T01:12:37.586Z,0.00
2022-12-09T01:13:37.530Z,0.00
2022-12-09T01:14:37.638Z,0.00
2022-12-09T01:15:38.078Z,0.00
2022-12-09T01:16:37.836Z,0.00
2022-12-09T01:17:38.043Z,0.00
2022-12-09T01:18:37.913Z,0.00
2022-12-09T01:19:38.016Z,0.00
2022-12-09T01:20:38.344Z,0.00
2022-12-09T01:21:38.396Z,0.00
2022-12-09T01:22:38.534Z,0.00
2022-12-09T01:23:38.313Z,0.00
2022-12-09T01:24:38.550Z,0.00
2022-12-09T01:25:38.786Z,0.00
2022-12-09T01:26:38.668Z,0.00
2022-12-09T01:27:38.670Z,0.00
2022-12-09T01:28:38.903Z,0.00
2022-12-09T01:29:38.894Z,0.00
2022-12-09T01:30:38.873Z,0.00
2022-12-09T01:31:39.127Z,0.00
2022-12-09T01:32:39.252Z,0.00
2022-12-09T01:33:39.238Z,0.00
2022-12-09T01:34:39.190Z,0.00
2022-12-09T01:35:39.527Z,0.00
2022-12-09T01:36:39.621Z,0.00
2022-12-09T01:37:39.526Z,0.00
2022-12-09T01:38:39.544Z,0.00
2022-12-09T01:39:39.926Z,0.00
2022-12-09T01:40:39.719Z,0.00
2022-12-09T01:41:39.738Z,0.00
2022-12-09T01:42:39.861Z,0.00
2022-12-09T01:43:40.317Z,0.00
2022-12-09T01:44:39.989Z,0.00
2022-12-09T01:45:40.210Z,0.00
2022-12-09T01:46:40.260Z,0.00
2022-12-09T01:47:40.391Z,0.00
2022-12-09T01:48:40.432Z,0.00
2022-12-09T01:49:40.460Z,0.00
2022-12-09T01:50:40.493Z,0.00
2022-12-09T01:51:40.704Z,0.00
2022-12-09T01:52:40.608Z,0.00
2022-12-09T01:53:40.706Z,0.00
2022-12-09T01:54:40.908Z,0.00
2022-12-09T01:55:40.988Z,0.00
2022-12-09T01:56:40.978Z,0.00
2022-12-09T01:57:41.013Z,0.00
2022-12-09T01:58:41.119Z,0.00
2022-12-09T01:59:41.150Z,0.00
2022-12-09T02:00:41.264Z,0.00
2022-12-09T02:01:41.698Z,0.00
2022-12-09T02:02:41.832Z,0.00
2022-12-09T02:03:41.830Z,0.00
2022-12-09T02:04:41.902Z,0.00
2022-12-09T02:05:41.609Z,0.00
2022-12-09T02:06:41.679Z,0.00
2022-12-09T02:07:42.118Z,0.00
2022-12-09T02:08:41.934Z,0.00
2022-12-09T02:09:42.074Z,0.00
2022-12-09T02:10:42.029Z,0.00
2022-12-09T02:11:42.099Z,0.00
2022-12-09T02:12:42.204Z,0.00
2022-12-09T02:13:42.230Z,0.00
2022-12-09T02:14:42.611Z,0.00
2022-12-09T02:15:42.410Z,0.00
2022-12-09T02:16:42.569Z,0.00
2022-12-09T02:17:42.933Z,0.00
2022-12-09T02:18:42.815Z,0.00
2022-12-09T02:19:42.714Z,0.00
2022-12-09T02:20:42.878Z,0.00
2022-12-09T02:21:42.878Z,0.00
2022-12-09T02:22:42.933Z,0.00
2022-12-09T02:23:43.144Z,0.00
2022-12-09T02:24:43.453Z,0.00
2022-12-09T02:25:43.313Z,0.00
2022-12-09T02:26:43.300Z,0.00
2022-12-09T02:27:43.414Z,0.00
2022-12-09T02:28:43.598Z,0.00
2022-12-09T02:29:43.536Z,0.00
2022-12-09T02:30:43.625Z,0.00
2022-12-09T02:31:43.801Z,0.00
2022-12-09T02:32:43.945Z,0.00
2022-12-09T02:33:43.846Z,0.00
2022-12-09T02:34:44.241Z,0.00
2022-12-09T02:35:44.052Z,0.00
2022-12-09T02:36:44.189Z,0.00
2022-12-09T02:37:44.129Z,0.00
2022-12-09T02:38:44.412Z,0.00
2022-12-09T02:39:44.595Z,0.00
2022-12-09T02:40:44.380Z,0.00
2022-12-09T02:41:44.592Z,0.00
2022-12-09T02:42:44.862Z,0.00
2022-12-09T02:43:49.736Z,0.00
2022-12-09T02:44:44.713Z,0.00
2022-12-09T02:45:44.777Z,0.00
2022-12-09T02:46:45.101Z,0.00
2022-12-09T02:47:45.044Z,0.00
2022-12-09T02:48:45.313Z,0.00
2022-12-09T02:49:45.087Z,0.00
2022-12-09T02:50:45.180Z,0.00
2022-12-09T02:51:45.252Z,0.00
2022-12-09T02:52:45.672Z,0.00
2022-12-09T02:53:45.661Z,0.00
2022-12-09T02:54:45.783Z,0.00
2022-12-09T02:55:45.558Z,0.00
2022-12-09T02:56:45.611Z,0.00
2022-12-09T02:57:45.687Z,0.00
2022-12-09T02:58:45.790Z,0.00
2022-12-09T02:59:45.847Z,0.00
2022-12-09T03:00:46.156Z,0.00
2022-12-09T03:01:46.529Z,0.00
2022-12-09T03:02:46.219Z,0.00
2022-12-09T03:03:46.353Z,0.00
2022-12-09T03:04:46.277Z,0.00
2022-12-09T03:05:46.646Z,0.00
2022-12-09T03:06:46.373Z,0.00
2022-12-09T03:07:46.827Z,0.00
2022-12-09T03:08:46.706Z,0.00
2022-12-09T03:09:46.625Z,0.00
2022-12-09T03:10:46.793Z,0.00
2022-12-09T03:11:47.007Z,0.00
2022-12-09T03:12:46.884Z,0.00
2022-12-09T03:13:46.985Z,0.00
2022-12-09T03:14:47.223Z,0.00
2022-12-09T03:15:47.418Z,0.00
2022-12-09T03:16:47.248Z,0.00
2022-12-09T03:17:47.328Z,0.00
2022-12-09T03:18:47.340Z,0.00
2022-12-09T03:19:47.434Z,0.00
2022-12-09T03:20:47.509Z,0.00
2022-12-09T03:21:47.577Z,0.00
2022-12-09T03:22:47.647Z,0.00
2022-12-09T03:23:47.847Z,0.00
2022-12-09T03:24:47.993Z,0.00
2022-12-09T03:25:48.000Z,0.00
2022-12-09T03:26:48.214Z,0.00
2022-12-09T03:27:48.092Z,0.00
2022-12-09T03:28:48.114Z,0.00
2022-12-09T03:29:48.260Z,0.00
2022-12-09T03:30:48.322Z,0.00
2022-12-09T03:31:48.636Z,0.00
2022-12-09T03:32:48.545Z,0.00
2022-12-09T03:33:48.791Z,0.00
2022-12-09T03:34:48.780Z,0.00
2022-12-09T03:35:48.776Z,0.00
2022-12-09T03:36:48.765Z,0.00
2022-12-09T03:37:48.965Z,0.00
2022-12-09T03:38:49.043Z,0.00
2022-12-09T03:39:49.007Z,0.00
2022-12-09T03:40:49.110Z,0.00
2022-12-09T03:41:49.191Z,0.00
2022-12-09T03:42:49.337Z,0.00
2022-12-09T03:43:49.401Z,0.00
2022-12-09T03:44:49.420Z,0.00
2022-12-09T03:45:49.681Z,0.00
2022-12-09T03:46:49.934Z,0.00
2022-12-09T03:47:49.705Z,0.00
2022-12-09T03:48:50.040Z,0.00
2022-12-09T03:49:50.017Z,0.00
2022-12-09T03:50:49.861Z,0.00
2022-12-09T03:51:49.921Z,0.00
2022-12-09T03:52:50.126Z,0.00
2022-12-09T03:53:50.399Z,0.00
2022-12-09T03:54:50.284Z,0.00
2022-12-09T03:55:50.262Z,0.00
2022-12-09T03:56:50.547Z,0.00
2022-12-09T03:57:50.381Z,0.00
2022-12-09T03:58:50.455Z,0.00
2022-12-09T03:59:50.796Z,0.00
2022-12-09T04:00:50.652Z,0.00
2022-12-09T04:01:50.932Z,0.00
2022-12-09T04:02:50.967Z,0.00
2022-12-09T04:03:51.070Z,0.00
2022-12-09T04:04:51.297Z,0.00
2022-12-09T04:05:51.266Z,0.00
2022-12-09T04:06:51.128Z,0.00
2022-12-09T04:07:51.261Z,0.00
2022-12-09T04:08:51.305Z,0.00
2022-12-09T04:09:51.348Z,0.00
2022-12-09T04:10:51.486Z,0.00
2022-12-09T04:11:51.717Z,0.00
2022-12-09T04:12:51.569Z,0.00
2022-12-09T04:13:51.754Z,0.00
2022-12-09T04:14:52.004Z,0.00
2022-12-09T04:15:51.846Z,0.00
2022-12-09T04:16:52.361Z,0.00
2022-12-09T04:17:52.199Z,0.00
2022-12-09T04:18:52.094Z,0.00
2022-12-09T04:19:52.350Z,0.00
2022-12-09T04:20:52.393Z,0.00
2022-12-09T04:21:52.316Z,0.00
2022-12-09T04:22:52.381Z,0.00
2022-12-09T04:23:52.732Z,0.00
2022-12-09T04:24:52.535Z,0.00
2022-12-09T04:25:52.970Z,0.00
2022-12-09T04:26:52.726Z,0.00
2022-12-09T04:27:52.884Z,0.00
2022-12-09T04:28:52.926Z,0.00
2022-12-09T04:29:53.122Z,0.00
2022-12-09T04:30:53.097Z,0.00
2022-12-09T04:31:53.220Z,0.00
2022-12-09T04:32:53.625Z,0.00
2022-12-09T04:33:53.554Z,0.00
2022-12-09T04:34:53.717Z,0.00
2022-12-09T04:35:53.591Z,0.00
2022-12-09T04:36:53.563Z,0.00
2022-12-09T04:37:53.595Z,0.00
2022-12-09T04:38:53.668Z,0.00
2022-12-09T04:39:54.085Z,0.00
2022-12-09T04:40:54.207Z,0.00
2022-12-09T04:41:53.933Z,0.00
2022-12-09T04:42:54.133Z,0.00
2022-12-09T04:43:54.095Z,0.00
2022-12-09T04:44:54.433Z,0.00
2022-12-09T04:45:54.344Z,0.00
2022-12-09T04:46:54.381Z,0.00
2022-12-09T04:47:54.497Z,0.00
2022-12-09T04:48:54.472Z,0.00
2022-12-09T04:49:54.943Z,0.00
2022-12-09T04:50:54.869Z,0.00
2022-12-09T04:51:54.697Z,0.00
2022-12-09T04:52:54.768Z,0.00
2022-12-09T04:53:55.004Z,0.00
2022-12-09T04:54:54.917Z,0.00
2022-12-09T04:55:55.175Z,0.00
2022-12-09T04:56:55.073Z,0.00
2022-12-09T04:57:55.453Z,0.00
2022-12-09T04:58:55.223Z,0.00
2022-12-09T04:59:55.313Z,0.00
2022-12-09T05:00:55.560Z,0.00
2022-12-09T05:01:55.549Z,0.00
2022-12-09T05:02:55.659Z,0.00
2022-12-09T05:03:55.708Z,0.00
2022-12-09T05:04:56.031Z,0.00
2022-12-09T05:05:55.979Z,0.00
2022-12-09T05:06:56.041Z,0.00
2022-12-09T05:07:56.267Z,0.00
2022-12-09T05:08:56.521Z,0.00
2022-12-09T05:09:56.523Z,0.00
2022-12-09T05:10:56.645Z,0.00
2022-12-09T05:11:56.402Z,0.00
2022-12-09T05:12:56.719Z,0.00
2022-12-09T05:13:56.702Z,0.00
2022-12-09T05:14:56.888Z,0.00
2022-12-09T05:15:56.721Z,0.00
2022-12-09T05:16:56.950Z,0.00
2022-12-09T05:17:56.932Z,0.00
2022-12-09T05:18:57.130Z,0.00
2022-12-09T05:19:56.981Z,0.00
2022-12-09T05:20:57.299Z,0.00
2022-12-09T05:21:57.516Z,0.00
2022-12-09T05:22:57.222Z,0.00
2022-12-09T05:23:57.599Z,0.00
2022-12-09T05:24:57.678Z,0.00
2022-12-09T05:25:57.765Z,0.00
2022-12-09T05:26:57.626Z,0.00
2022-12-09T05:27:57.887Z,0.00
2022-12-09T05:28:57.917Z,0.00
2022-12-09T05:29:57.797Z,0.00
2022-12-09T05:30:57.833Z,0.00
2022-12-09T05:31:58.165Z,0.00
2022-12-09T05:32:58.452Z,0.00
2022-12-09T05:33:58.456Z,0.00
2022-12-09T05:34:58.091Z,0.00
2022-12-09T05:35:58.472Z,0.00
2022-12-09T05:36:58.430Z,0.00
2022-12-09T05:37:58.418Z,0.00
2022-12-09T05:38:58.571Z,0.00
2022-12-09T05:39:58.770Z,0.00
2022-12-09T05:40:58.582Z,0.00
2022-12-09T05:41:58.826Z,0.00
2022-12-09T05:42:59.012Z,0.00
2022-12-09T05:43:58.973Z,0.00
2022-12-09T05:44:58.802Z,0.00
2022-12-09T05:45:59.020Z,0.00
2022-12-09T05:46:59.076Z,0.00
2022-12-09T05:47:59.247Z,0.00
2022-12-09T05:48:59.494Z,0.00
2022-12-09T05:50:03.067Z,0.00
2022-12-09T05:50:59.469Z,0.00
2022-12-09T05:51:59.722Z,0.00
2022-12-09T05:52:59.749Z,0.00
2022-12-09T05:53:59.554Z,0.00
2022-12-09T05:54:59.669Z,0.00
2022-12-09T05:56:00.013Z,0.00
2022-12-09T05:57:00.005Z,0.00
2022-12-09T05:58:00.309Z,0.00
2022-12-09T05:59:00.249Z,0.00
2022-12-09T06:00:00.173Z,0.00
2022-12-09T06:01:00.308Z,0.00
2022-12-09T06:02:03.714Z,0.00
2022-12-09T06:03:00.488Z,0.00
2022-12-09T06:04:00.610Z,0.00
2022-12-09T06:05:01.069Z,0.00
2022-12-09T06:06:00.774Z,0.00
2022-12-09T06:07:01.063Z,0.00
2022-12-09T06:08:06.467Z,0.00
2022-12-09T06:09:01.021Z,0.00
2022-12-09T06:10:01.254Z,0.00
2022-12-09T06:11:01.421Z,0.00
2022-12-09T06:12:01.288Z,0.00
2022-12-09T06:13:01.233Z,0.00
2022-12-09T06:14:01.485Z,0.00
2022-12-09T06:15:01.472Z,0.00
2022-12-09T06:16:01.578Z,0.00
2022-12-09T06:17:01.755Z,0.00
2022-12-09T06:18:01.938Z,0.00
2022-12-09T06:19:02.075Z,0.00
2022-12-09T06:20:01.747Z,0.00
2022-12-09T06:21:02.079Z,0.00
2022-12-09T06:22:02.063Z,0.00
2022-12-09T06:23:01.936Z,0.00
2022-12-09T06:24:02.013Z,0.00
2022-12-09T06:25:01.971Z,0.00
2022-12-09T06:26:02.321Z,0.00
2022-12-09T06:27:02.253Z,0.00
2022-12-09T06:28:02.292Z,0.00
2022-12-09T06:29:02.497Z,0.00
2022-12-09T06:30:02.524Z,0.00
2022-12-09T06:31:02.833Z,0.00
2022-12-09T06:32:02.740Z,0.00
2022-12-09T06:33:04.337Z,0.00
2022-12-09T06:34:02.899Z,0.00
2022-12-09T06:35:03.037Z,0.00
2022-12-09T06:36:02.948Z,0.00
2022-12-09T06:37:03.328Z,0.00
2022-12-09T06:38:03.080Z,0.00
2022-12-09T06:39:09.570Z,0.00
2022-12-09T06:40:03.357Z,0.00
2022-12-09T06:41:03.540Z,0.00
2022-12-09T06:42:03.787Z,0.00
2022-12-09T06:43:03.742Z,0.00
2022-12-09T06:44:03.548Z,0.00
2022-12-09T06:45:03.940Z,0.00
2022-12-09T06:46:03.775Z,0.00
2022-12-09T06:47:04.068Z,0.00
2022-12-09T06:48:04.102Z,0.00
2022-12-09T06:49:04.560Z,0.00
2022-12-09T06:50:07.067Z,0.00
2022-12-09T06:51:04.513Z,0.00
2022-12-09T06:52:04.510Z,0.00
2022-12-09T06:53:04.381Z,0.00
2022-12-09T06:54:04.545Z,0.00
2022-12-09T06:55:05.026Z,0.00
2022-12-09T06:56:11.099Z,0.00
2022-12-09T06:57:04.539Z,0.00
2022-12-09T06:58:04.905Z,0.00
2022-12-09T06:59:04.730Z,0.00
2022-12-09T07:00:04.902Z,0.00
2022-12-09T07:01:05.389Z,0.00
2022-12-09T07:02:05.439Z,0.00
2022-12-09T07:03:05.192Z,0.00
2022-12-09T07:04:05.344Z,0.00
2022-12-09T07:05:05.934Z,0.00
2022-12-09T07:06:05.386Z,0.00
2022-12-09T07:07:05.695Z,0.00
2022-12-09T07:08:05.460Z,0.00
2022-12-09T07:09:05.549Z,0.00
2022-12-09T07:10:05.731Z,0.00
2022-12-09T07:11:06.000Z,0.00
2022-12-09T07:12:05.601Z,0.00
2022-12-09T07:13:06.071Z,0.00
2022-12-09T07:14:06.071Z,0.00
2022-12-09T07:15:06.580Z,0.00
2022-12-09T07:16:06.236Z,0.00
2022-12-09T07:17:06.203Z,5.62
2022-12-09T07:18:06.197Z,5.62
2022-12-09T07:19:06.414Z,5.62
2022-12-09T07:20:07.549Z,5.62
2022-12-09T07:21:06.355Z,5.62
2022-12-09T07:22:06.844Z,5.62
2022-12-09T07:23:06.501Z,5.62
2022-12-09T07:24:06.548Z,5.62
2022-12-09T07:25:07.521Z,5.62
2022-12-09T07:26:07.456Z,5.62
2022-12-09T07:27:10.783Z,5.62
2022-12-09T07:28:07.314Z,5.62
2022-12-09T07:29:07.284Z,5.62
2022-12-09T07:30:07.115Z,11.25
2022-12-09T07:31:07.237Z,11.25
2022-12-09T07:32:07.710Z,11.25
2022-12-09T07:33:07.453Z,11.25
2022-12-09T07:34:07.626Z,11.25
2022-12-09T07:35:08.407Z,11.25
2022-12-09T07:36:07.788Z,11.25
2022-12-09T07:37:07.818Z,11.25
2022-12-09T07:38:08.052Z,11.25
2022-12-09T07:39:08.243Z,11.25
2022-12-09T07:40:08.012Z,11.25
2022-12-09T07:41:08.246Z,11.25
2022-12-09T07:42:08.296Z,16.88
2022-12-09T07:43:08.271Z,16.88
2022-12-09T07:44:08.612Z,16.88
2022-12-09T07:45:09.117Z,22.50
2022-12-09T07:46:08.496Z,22.50
2022-12-09T07:47:08.527Z,22.50
2022-12-09T07:48:08.673Z,28.12
2022-12-09T07:49:09.190Z,28.12
2022-12-09T07:50:09.144Z,28.12
2022-12-09T07:51:09.122Z,33.75
2022-12-09T07:52:09.043Z,33.75
2022-12-09T07:53:09.298Z,39.38
2022-12-09T07:54:09.326Z,45.00
2022-12-09T07:55:09.466Z,45.00
2022-12-09T07:56:09.301Z,45.00
2022-12-09T07:57:09.392Z,50.62
2022-12-09T07:58:09.534Z,50.62
2022-12-09T07:59:09.719Z,56.25
2022-12-09T08:00:09.494Z,56.25
2022-12-09T08:01:09.626Z,61.88
2022-12-09T08:02:09.638Z,61.88
2022-12-09T08:03:09.764Z,67.50
2022-12-09T08:04:10.228Z,67.50
2022-12-09T08:05:10.539Z,73.12
2022-12-09T08:06:10.184Z,78.75
2022-12-09T08:07:11.574Z,84.38
2022-12-09T08:08:10.974Z,90.00
2022-12-09T08:09:10.562Z,95.62
2022-12-09T08:10:10.745Z,101.25
2022-12-09T08:11:10.491Z,112.50
2022-12-09T08:12:10.946Z,123.75
2022-12-09T08:13:10.991Z,129.38
2022-12-09T08:14:12.641Z,135.00
2022-12-09T08:15:11.004Z,140.62
2022-12-09T08:16:10.987Z,146.25
2022-12-09T08:17:11.285Z,151.88
2022-12-09T08:18:11.259Z,151.88
2022-12-09T08:19:11.366Z,151.88
2022-12-09T08:20:11.268Z,157.50
2022-12-09T08:21:11.270Z,157.50
2022-12-09T08:22:11.219Z,157.50
2022-12-09T08:23:11.678Z,163.12
2022-12-09T08:24:11.766Z,168.75
2022-12-09T08:25:11.694Z,168.75
2022-12-09T08:26:11.951Z,168.75
2022-12-09T08:27:11.970Z,163.12
2022-12-09T08:28:11.713Z,157.50
2022-12-09T08:29:12.047Z,157.50
2022-12-09T08:30:12.494Z,157.50
2022-12-09T08:31:12.490Z,157.50
2022-12-09T08:32:12.090Z,157.50
2022-12-09T08:33:12.180Z,163.12
2022-12-09T08:34:12.383Z,163.12
2022-12-09T08:35:12.694Z,163.12
2022-12-09T08:36:12.364Z,163.12
2022-12-09T08:37:12.734Z,168.75
2022-12-09T08:38:12.539Z,168.75
2022-12-09T08:39:12.617Z,174.38
2022-12-09T08:40:13.321Z,174.38
2022-12-09T08:41:12.769Z,174.38
2022-12-09T08:42:12.876Z,174.38
2022-12-09T08:43:12.791Z,168.75
2022-12-09T08:44:13.067Z,168.75
2022-12-09T08:45:13.215Z,163.12
2022-12-09T08:46:13.122Z,157.50
2022-12-09T08:47:13.205Z,157.50
2022-12-09T08:48:13.535Z,163.12
2022-12-09T08:49:13.557Z,168.75
2022-12-09T08:50:14.245Z,174.38
2022-12-09T08:51:13.876Z,174.38
2022-12-09T08:52:13.605Z,174.38
2022-12-09T08:53:13.901Z,174.38
2022-12-09T08:54:13.981Z,174.38
2022-12-09T08:55:14.010Z,174.38
2022-12-09T08:56:13.993Z,174.38
2022-12-09T08:57:14.175Z,174.38
2022-12-09T08:58:14.211Z,180.00
2022-12-09T08:59:14.511Z,174.38
2022-12-09T09:00:15.108Z,174.38
2022-12-09T09:01:14.741Z,180.00
2022-12-09T09:02:14.548Z,174.38
2022-12-09T09:03:14.873Z,180.00
2022-12-09T09:04:14.664Z,180.00
2022-12-09T09:05:14.835Z,180.00
2022-12-09T09:06:15.206Z,185.62
2022-12-09T09:07:14.896Z,185.62
2022-12-09T09:08:15.175Z,185.62
2022-12-09T09:09:15.242Z,185.62
2022-12-09T09:10:15.985Z,185.62
2022-12-09T09:11:15.239Z,191.25
2022-12-09T09:12:15.451Z,196.88
2022-12-09T09:13:15.703Z,196.88
2022-12-09T09:14:15.696Z,196.88
2022-12-09T09:15:15.965Z,202.50
2022-12-09T09:16:15.795Z,202.50
2022-12-09T09:17:16.078Z,202.50
2022-12-09T09:18:16.001Z,202.50
2022-12-09T09:19:15.841Z,202.50
2022-12-09T09:20:16.694Z,202.50
2022-12-09T09:21:16.122Z,202.50
2022-12-09T09:22:16.396Z,202.50
2022-12-09T09:23:16.449Z,208.12
2022-12-09T09:24:16.211Z,208.12
2022-12-09T09:25:16.541Z,213.75
2022-12-09T09:26:16.597Z,219.38
2022-12-09T09:27:16.584Z,225.00
2022-12-09T09:28:16.809Z,225.00
2022-12-09T09:29:16.701Z,225.00
2022-12-09T09:30:17.077Z,219.38
2022-12-09T09:31:16.874Z,213.75
2022-12-09T09:32:17.126Z,208.12
2022-12-09T09:33:16.969Z,208.12
2022-12-09T09:34:17.166Z,202.50
2022-12-09T09:35:17.266Z,202.50
2022-12-09T09:36:17.099Z,208.12
2022-12-09T09:37:17.143Z,208.12
2022-12-09T09:38:17.592Z,213.75
2022-12-09T09:39:17.402Z,219.38
2022-12-09T09:40:17.406Z,219.38
2022-12-09T09:41:17.477Z,219.38
2022-12-09T09:42:17.758Z,219.38
2022-12-09T09:43:17.565Z,219.38
2022-12-09T09:44:17.614Z,225.00
2022-12-09T09:45:17.841Z,230.62
2022-12-09T09:46:18.221Z,230.62
2022-12-09T09:47:18.255Z,230.62
2022-12-09T09:48:18.403Z,230.62
2022-12-09T09:49:18.240Z,236.25
2022-12-09T09:50:18.741Z,236.25
2022-12-09T09:51:18.511Z,241.88
2022-12-09T09:52:18.371Z,241.88
2022-12-09T09:53:18.327Z,247.50
2022-12-09T09:54:18.777Z,247.50
2022-12-09T09:55:18.541Z,253.12
2022-12-09T09:56:18.541Z,264.38
2022-12-09T09:57:18.763Z,270.00
2022-12-09T09:58:19.028Z,275.62
2022-12-09T09:59:19.394Z,281.25
2022-12-09T10:00:19.279Z,281.25
2022-12-09T10:01:19.210Z,286.88
2022-12-09T10:02:19.602Z,292.50
2022-12-09T10:03:19.799Z,292.50
2022-12-09T10:04:19.548Z,292.50
2022-12-09T10:05:19.512Z,292.50
2022-12-09T10:06:19.727Z,298.12
2022-12-09T10:07:20.030Z,303.75
2022-12-09T10:08:19.861Z,303.75
2022-12-09T10:09:19.839Z,309.38
2022-12-09T10:10:20.541Z,309.38
2022-12-09T10:11:20.209Z,303.75
2022-12-09T10:12:20.222Z,303.75
2022-12-09T10:13:20.099Z,298.12
2022-12-09T10:14:20.346Z,292.50
2022-12-09T10:15:20.648Z,292.50
2022-12-09T10:16:20.222Z,286.88
2022-12-09T10:17:20.471Z,281.25
2022-12-09T10:18:20.335Z,281.25
2022-12-09T10:19:20.780Z,281.25
2022-12-09T10:20:20.549Z,281.25
2022-12-09T10:21:20.894Z,281.25
2022-12-09T10:22:21.107Z,281.25
2022-12-09T10:23:20.805Z,286.88
2022-12-09T10:24:21.142Z,286.88
2022-12-09T10:25:21.165Z,292.50
2022-12-09T10:26:21.110Z,298.12
2022-12-09T10:27:21.176Z,303.75
2022-12-09T10:28:20.971Z,315.00
2022-12-09T10:29:21.376Z,320.62
2022-12-09T10:30:21.610Z,320.62
2022-12-09T10:31:21.316Z,320.62
2022-12-09T10:32:21.544Z,320.62
2022-12-09T10:33:21.586Z,320.62
2022-12-09T10:34:22.042Z,315.00
2022-12-09T10:35:21.792Z,309.38
2022-12-09T10:36:22.132Z,303.75
2022-12-09T10:37:21.730Z,292.50
2022-12-09T10:38:22.188Z,292.50
2022-12-09T10:39:22.114Z,286.88
2022-12-09T10:40:22.100Z,275.62
2022-12-09T10:41:22.500Z,275.62
2022-12-09T10:42:22.071Z,270.00
2022-12-09T10:43:22.157Z,270.00
2022-12-09T10:44:22.491Z,275.62
2022-12-09T10:45:22.410Z,275.62
2022-12-09T10:46:23.185Z,275.62
2022-12-09T10:47:22.463Z,275.62
2022-12-09T10:48:22.556Z,275.62
2022-12-09T10:49:22.900Z,275.62
2022-12-09T10:50:23.134Z,275.62
2022-12-09T10:51:23.044Z,281.25
2022-12-09T10:52:22.972Z,286.88
2022-12-09T10:53:22.793Z,286.88
2022-12-09T10:54:23.022Z,286.88
2022-12-09T10:55:22.935Z,286.88
2022-12-09T10:56:23.441Z,281.25
2022-12-09T10:57:23.510Z,281.25
2022-12-09T10:58:23.244Z,281.25
2022-12-09T10:59:23.307Z,275.62
2022-12-09T11:00:26.103Z,275.62
2022-12-09T11:01:23.713Z,275.62
2022-12-09T11:02:23.820Z,275.62
2022-12-09T11:03:23.952Z,275.62
2022-12-09T11:04:23.976Z,275.62
2022-12-09T11:05:24.089Z,270.00
2022-12-09T11:06:24.613Z,264.38
2022-12-09T11:07:24.068Z,253.12
2022-12-09T11:08:24.143Z,247.50
2022-12-09T11:09:24.315Z,236.25
2022-12-09T11:10:25.151Z,230.62
2022-12-09T11:11:25.486Z,225.00
2022-12-09T11:12:24.339Z,230.62
2022-12-09T11:13:24.586Z,225.00
2022-12-09T11:14:24.788Z,230.62
2022-12-09T11:15:24.882Z,230.62
2022-12-09T11:16:24.702Z,230.62
2022-12-09T11:17:25.083Z,236.25
2022-12-09T11:18:24.897Z,236.25
2022-12-09T11:19:25.263Z,241.88
2022-12-09T11:20:25.408Z,241.88
2022-12-09T11:21:25.074Z,241.88
2022-12-09T11:22:25.214Z,247.50
2022-12-09T11:23:25.514Z,247.50
2022-12-09T11:24:25.256Z,253.12
2022-12-09T11:25:25.804Z,258.75
2022-12-09T11:26:25.365Z,258.75
2022-12-09T11:27:26.003Z,253.12
2022-12-09T11:28:25.546Z,253.12
2022-12-09T11:29:25.593Z,241.88
2022-12-09T11:30:26.817Z,236.25
2022-12-09T11:31:30.244Z,236.25
2022-12-09T11:32:26.251Z,236.25
2022-12-09T11:33:26.394Z,236.25
2022-12-09T11:34:26.270Z,230.62
2022-12-09T11:35:26.233Z,219.38
2022-12-09T11:36:27.526Z,219.38
2022-12-09T11:37:26.157Z,219.38
2022-12-09T11:38:26.253Z,225.00
2022-12-09T11:39:26.320Z,225.00
2022-12-09T11:40:26.396Z,225.00
2022-12-09T11:41:26.515Z,225.00
2022-12-09T11:42:26.567Z,230.62
2022-12-09T11:43:26.621Z,236.25
2022-12-09T11:44:26.717Z,236.25
2022-12-09T11:45:26.772Z,241.88
2022-12-09T11:46:26.924Z,241.88
2022-12-09T11:47:26.933Z,253.12
2022-12-09T11:48:34.784Z,270.00
2022-12-09T11:49:27.090Z,286.88
2022-12-09T11:50:27.203Z,298.12
2022-12-09T11:51:27.292Z,303.75
2022-12-09T11:52:27.343Z,292.50
2022-12-09T11:53:27.405Z,286.88
2022-12-09T11:54:27.506Z,292.50
2022-12-09T11:55:27.551Z,286.88
2022-12-09T11:56:27.682Z,286.88
2022-12-09T11:57:27.713Z,286.88
2022-12-09T11:58:27.785Z,270.00
2022-12-09T11:59:27.850Z,258.75
2022-12-09T12:00:27.925Z,247.50
2022-12-09T12:01:28.037Z,230.62
2022-12-09T12:02:28.146Z,225.00
2022-12-09T12:03:28.205Z,219.38
2022-12-09T12:04:28.292Z,219.38
2022-12-09T12:05:28.318Z,213.75
2022-12-09T12:06:28.444Z,219.38
2022-12-09T12:07:28.469Z,236.25
2022-12-09T12:08:28.735Z,236.25
2022-12-09T12:09:28.642Z,253.12
2022-12-09T12:10:28.737Z,258.75
2022-12-09T12:11:28.853Z,258.75
2022-12-09T12:12:28.899Z,247.50
2022-12-09T12:13:28.974Z,236.25
2022-12-09T12:14:29.047Z,219.38
2022-12-09T12:15:29.112Z,208.12
2022-12-09T12:16:29.233Z,202.50
2022-12-09T12:17:29.285Z,191.25
2022-12-09T12:18:29.359Z,185.62
2022-12-09T12:19:29.428Z,185.62
2022-12-09T12:20:29.525Z,185.62
2022-12-09T12:21:29.633Z,191.25
2022-12-09T12:22:29.691Z,185.62
2022-12-09T12:23:29.768Z,191.25
2022-12-09T12:24:29.850Z,196.88
2022-12-09T12:25:29.927Z,202.50
2022-12-09T12:26:30.016Z,196.88
2022-12-09T12:27:30.096Z,202.50
2022-12-09T12:28:30.197Z,213.75
2022-12-09T12:29:30.229Z,236.25
2022-12-09T12:30:30.324Z,241.88
2022-12-09T12:31:30.598Z,241.88
2022-12-09T12:32:30.471Z,236.25
2022-12-09T12:34:35.714Z,230.62
2022-12-09T12:35:30.699Z,225.00
2022-12-09T12:36:30.816Z,230.62
2022-12-09T12:37:30.845Z,230.62
2022-12-09T12:38:30.927Z,225.00
2022-12-09T12:39:30.998Z,213.75
2022-12-09T12:40:31.097Z,196.88
2022-12-09T12:41:31.181Z,191.25
2022-12-09T12:42:31.241Z,180.00
2022-12-09T12:43:31.309Z,180.00
2022-12-09T12:44:31.402Z,180.00
2022-12-09T12:45:31.543Z,180.00
2022-12-09T12:46:31.625Z,174.38
2022-12-09T12:47:31.623Z,174.38
2022-12-09T12:48:31.776Z,174.38
2022-12-09T12:49:31.777Z,168.75
2022-12-09T12:50:31.873Z,168.75
2022-12-09T12:51:31.957Z,163.12
2022-12-09T12:52:54.842Z,157.50
2022-12-09T12:53:32.081Z,157.50
2022-12-09T12:54:32.157Z,163.12
2022-12-09T12:55:32.242Z,163.12
2022-12-09T12:56:32.337Z,168.75
2022-12-09T12:57:32.361Z,168.75
2022-12-09T12:58:32.444Z,174.38
2022-12-09T12:59:32.506Z,174.38